sensor_id;sensor_type;location;lat;lon;timestamp;temperature;humidity
7684;DHT22;3884;48.616;12.872;2023-02-15T00:02:01;-1.00;99.90
7684;DHT22;3884;48.616;12.872;2023-02-15T00:04:29;-1.00;99.90
7684;DHT22;3884;48.616;12.872;2023-02-15T00:07:14;-1.10;99.90
7684;DHT22;3884;48.616;12.872;2023-02-15T00:09:41;-1.10;99.90
7684;DHT22;3884;48.616;12.872;2023-02-15T00:12:09;-1.00;99.90
7684;DHT22;3884;48.616;12.872;2023-02-15T00:14:36;-1.00;99.90
7684;DHT22;3884;48.616;12.872;2023-02-15T00:17:04;-1.00;99.90
7684;DHT22;3884;48.616;12.872;2023-02-15T00:19:31;-1.00;99.90
7684;DHT22;3884;48.616;12.872;2023-02-15T00:21:58;-1.00;99.90
7684;DHT22;3884;48.616;12.872;2023-02-15T00:24:26;-1.00;99.90
7684;DHT22;3884;48.616;12.872;2023-02-15T00:26:53;-1.00;99.90
7684;DHT22;3884;48.616;12.872;2023-02-15T00:29:21;-0.90;99.90
7684;DHT22;3884;48.616;12.872;2023-02-15T00:31:48;-0.80;99.90
7684;DHT22;3884;48.616;12.872;2023-02-15T00:34:18;-0.80;99.90
7684;DHT22;3884;48.616;12.872;2023-02-15T00:36:45;-0.90;99.90
7684;DHT22;3884;48.616;12.872;2023-02-15T00:39:14;-1.00;99.90
7684;DHT22;3884;48.616;12.872;2023-02-15T00:41:47;-1.00;99.90
7684;DHT22;3884;48.616;12.872;2023-02-15T00:44:15;-1.00;99.90
7684;DHT22;3884;48.616;12.872;2023-02-15T00:46:42;-1.00;99.90
7684;DHT22;3884;48.616;12.872;2023-02-15T00:49:09;-1.00;99.90
7684;DHT22;3884;48.616;12.872;2023-02-15T00:51:37;-0.90;99.90
7684;DHT22;3884;48.616;12.872;2023-02-15T00:54:05;-0.90;99.90
7684;DHT22;3884;48.616;12.872;2023-02-15T00:56:32;-0.90;99.90
7684;DHT22;3884;48.616;12.872;2023-02-15T00:59:00;-0.90;99.90
7684;DHT22;3884;48.616;12.872;2023-02-15T01:01:28;-0.90;99.90
7684;DHT22;3884;48.616;12.872;2023-02-15T01:03:55;-0.90;99.90
7684;DHT22;3884;48.616;12.872;2023-02-15T01:06:22;-1.00;99.90
7684;DHT22;3884;48.616;12.872;2023-02-15T01:08:49;-1.10;99.90
7684;DHT22;3884;48.616;12.872;2023-02-15T01:11:19;-1.10;99.90
7684;DHT22;3884;48.616;12.872;2023-02-15T01:13:48;-1.10;99.90
7684;DHT22;3884;48.616;12.872;2023-02-15T01:16:17;-1.10;99.90
7684;DHT22;3884;48.616;12.872;2023-02-15T01:18:44;-1.10;99.90
7684;DHT22;3884;48.616;12.872;2023-02-15T01:21:12;-1.20;99.90
7684;DHT22;3884;48.616;12.872;2023-02-15T01:23:43;-1.20;99.90
7684;DHT22;3884;48.616;12.872;2023-02-15T01:26:12;-1.20;99.90
7684;DHT22;3884;48.616;12.872;2023-02-15T01:28:39;-1.30;99.90
7684;DHT22;3884;48.616;12.872;2023-02-15T01:31:07;-1.30;99.90
7684;DHT22;3884;48.616;12.872;2023-02-15T01:33:36;-1.30;99.90
7684;DHT22;3884;48.616;12.872;2023-02-15T01:36:03;-1.20;99.90
7684;DHT22;3884;48.616;12.872;2023-02-15T01:38:31;-1.20;99.90
7684;DHT22;3884;48.616;12.872;2023-02-15T01:40:58;-1.20;99.90
7684;DHT22;3884;48.616;12.872;2023-02-15T01:43:40;-1.20;99.90
7684;DHT22;3884;48.616;12.872;2023-02-15T01:46:08;-1.20;99.90
7684;DHT22;3884;48.616;12.872;2023-02-15T01:48:40;-1.20;99.90
7684;DHT22;3884;48.616;12.872;2023-02-15T01:51:10;-1.20;99.90
7684;DHT22;3884;48.616;12.872;2023-02-15T01:53:42;-1.10;99.90
7684;DHT22;3884;48.616;12.872;2023-02-15T01:56:13;-1.10;99.90
7684;DHT22;3884;48.616;12.872;2023-02-15T01:58:45;-1.00;99.90
7684;DHT22;3884;48.616;12.872;2023-02-15T02:01:19;-1.10;99.90
7684;DHT22;3884;48.616;12.872;2023-02-15T02:03:57;-1.10;99.90
7684;DHT22;3884;48.616;12.872;2023-02-15T02:06:26;-1.10;99.90
7684;DHT22;3884;48.616;12.872;2023-02-15T02:08:53;-1.00;99.90
7684;DHT22;3884;48.616;12.872;2023-02-15T02:11:21;-0.90;99.90
7684;DHT22;3884;48.616;12.872;2023-02-15T02:13:50;-1.00;99.90
7684;DHT22;3884;48.616;12.872;2023-02-15T02:16:21;-1.10;99.90
7684;DHT22;3884;48.616;12.872;2023-02-15T02:19:05;-1.00;99.90
7684;DHT22;3884;48.616;12.872;2023-02-15T02:25:12;-1.10;99.90
7684;DHT22;3884;48.616;12.872;2023-02-15T02:27:47;-1.00;99.90
7684;DHT22;3884;48.616;12.872;2023-02-15T02:30:49;-1.10;99.90
7684;DHT22;3884;48.616;12.872;2023-02-15T02:33:38;-1.10;99.90
7684;DHT22;3884;48.616;12.872;2023-02-15T02:36:19;-1.20;99.90
7684;DHT22;3884;48.616;12.872;2023-02-15T02:38:59;-1.30;99.90
7684;DHT22;3884;48.616;12.872;2023-02-15T02:41:35;-1.30;99.90
7684;DHT22;3884;48.616;12.872;2023-02-15T02:44:13;-1.30;99.90
7684;DHT22;3884;48.616;12.872;2023-02-15T02:46:51;-1.20;99.90
7684;DHT22;3884;48.616;12.872;2023-02-15T02:49:31;-1.20;99.90
7684;DHT22;3884;48.616;12.872;2023-02-15T02:51:59;-1.20;99.90
7684;DHT22;3884;48.616;12.872;2023-02-15T02:54:27;-1.30;99.90
7684;DHT22;3884;48.616;12.872;2023-02-15T02:56:56;-1.30;99.90
7684;DHT22;3884;48.616;12.872;2023-02-15T02:59:30;-1.20;99.90
7684;DHT22;3884;48.616;12.872;2023-02-15T03:02:03;-1.20;99.90
7684;DHT22;3884;48.616;12.872;2023-02-15T03:04:36;-1.20;99.90
7684;DHT22;3884;48.616;12.872;2023-02-15T03:07:07;-1.20;99.90
7684;DHT22;3884;48.616;12.872;2023-02-15T03:09:37;-1.30;99.90
7684;DHT22;3884;48.616;12.872;2023-02-15T03:12:10;-1.40;99.90
7684;DHT22;3884;48.616;12.872;2023-02-15T03:14:44;-1.30;99.90
7684;DHT22;3884;48.616;12.872;2023-02-15T03:17:14;-1.30;99.90
7684;DHT22;3884;48.616;12.872;2023-02-15T03:19:45;-1.20;99.90
7684;DHT22;3884;48.616;12.872;2023-02-15T03:22:17;-1.30;99.90
7684;DHT22;3884;48.616;12.872;2023-02-15T03:24:50;-1.10;99.90
7684;DHT22;3884;48.616;12.872;2023-02-15T03:27:24;-1.30;99.90
7684;DHT22;3884;48.616;12.872;2023-02-15T03:29:54;-1.30;99.90
7684;DHT22;3884;48.616;12.872;2023-02-15T03:32:23;-1.30;99.90
7684;DHT22;3884;48.616;12.872;2023-02-15T03:34:54;-1.30;99.90
7684;DHT22;3884;48.616;12.872;2023-02-15T03:37:26;-1.30;99.90
7684;DHT22;3884;48.616;12.872;2023-02-15T03:39:56;-1.30;99.90
7684;DHT22;3884;48.616;12.872;2023-02-15T03:42:50;-1.30;99.90
7684;DHT22;3884;48.616;12.872;2023-02-15T03:45:24;-1.40;99.90
7684;DHT22;3884;48.616;12.872;2023-02-15T03:47:52;-1.40;99.90
7684;DHT22;3884;48.616;12.872;2023-02-15T03:50:27;-1.30;99.90
7684;DHT22;3884;48.616;12.872;2023-02-15T03:53:16;-1.30;99.90
7684;DHT22;3884;48.616;12.872;2023-02-15T03:55:46;-1.30;99.90
7684;DHT22;3884;48.616;12.872;2023-02-15T03:58:13;-1.40;99.90
7684;DHT22;3884;48.616;12.872;2023-02-15T04:00:59;-1.40;99.90
7684;DHT22;3884;48.616;12.872;2023-02-15T04:03:47;-1.30;99.90
7684;DHT22;3884;48.616;12.872;2023-02-15T04:06:18;-1.40;99.90
7684;DHT22;3884;48.616;12.872;2023-02-15T04:08:44;-1.40;99.90
7684;DHT22;3884;48.616;12.872;2023-02-15T04:11:29;-1.30;99.90
7684;DHT22;3884;48.616;12.872;2023-02-15T04:13:56;-1.20;99.90
7684;DHT22;3884;48.616;12.872;2023-02-15T04:16:24;-1.30;99.90
7684;DHT22;3884;48.616;12.872;2023-02-15T04:18:50;-1.30;99.90
7684;DHT22;3884;48.616;12.872;2023-02-15T04:21:35;-1.30;99.90
7684;DHT22;3884;48.616;12.872;2023-02-15T04:24:20;-1.30;99.90
7684;DHT22;3884;48.616;12.872;2023-02-15T04:27:05;-1.30;99.90
7684;DHT22;3884;48.616;12.872;2023-02-15T04:29:32;-1.30;99.90
7684;DHT22;3884;48.616;12.872;2023-02-15T04:32:00;-1.20;99.90
7684;DHT22;3884;48.616;12.872;2023-02-15T04:34:27;-1.30;99.90
7684;DHT22;3884;48.616;12.872;2023-02-15T04:36:56;-1.30;99.90
7684;DHT22;3884;48.616;12.872;2023-02-15T04:39:23;-1.30;99.90
7684;DHT22;3884;48.616;12.872;2023-02-15T04:41:50;-1.20;99.90
7684;DHT22;3884;48.616;12.872;2023-02-15T04:44:17;-1.20;99.90
7684;DHT22;3884;48.616;12.872;2023-02-15T04:46:44;-1.30;99.90
7684;DHT22;3884;48.616;12.872;2023-02-15T04:49:11;-1.30;99.90
7684;DHT22;3884;48.616;12.872;2023-02-15T04:51:38;-1.20;99.90
7684;DHT22;3884;48.616;12.872;2023-02-15T04:54:06;-1.20;99.90
7684;DHT22;3884;48.616;12.872;2023-02-15T04:56:33;-1.30;99.90
7684;DHT22;3884;48.616;12.872;2023-02-15T04:59:03;-1.20;99.90
7684;DHT22;3884;48.616;12.872;2023-02-15T05:01:30;-1.10;99.90
7684;DHT22;3884;48.616;12.872;2023-02-15T05:03:57;-1.20;99.90
7684;DHT22;3884;48.616;12.872;2023-02-15T05:06:24;-1.30;99.90
7684;DHT22;3884;48.616;12.872;2023-02-15T05:08:51;-1.30;99.90
7684;DHT22;3884;48.616;12.872;2023-02-15T05:11:19;-1.50;99.90
7684;DHT22;3884;48.616;12.872;2023-02-15T05:13:46;-1.60;99.90
7684;DHT22;3884;48.616;12.872;2023-02-15T05:16:13;-1.60;99.90
7684;DHT22;3884;48.616;12.872;2023-02-15T05:18:40;-1.60;99.90
7684;DHT22;3884;48.616;12.872;2023-02-15T05:21:08;-1.60;99.90
7684;DHT22;3884;48.616;12.872;2023-02-15T05:23:35;-1.60;99.90
7684;DHT22;3884;48.616;12.872;2023-02-15T05:26:02;-1.60;99.90
7684;DHT22;3884;48.616;12.872;2023-02-15T05:28:48;-1.70;99.90
7684;DHT22;3884;48.616;12.872;2023-02-15T05:31:17;-1.70;99.90
7684;DHT22;3884;48.616;12.872;2023-02-15T05:33:44;-1.60;99.90
7684;DHT22;3884;48.616;12.872;2023-02-15T05:36:12;-1.60;99.90
7684;DHT22;3884;48.616;12.872;2023-02-15T05:38:39;-1.50;99.90
7684;DHT22;3884;48.616;12.872;2023-02-15T05:41:07;-1.50;99.90
7684;DHT22;3884;48.616;12.872;2023-02-15T05:43:34;-1.70;99.90
7684;DHT22;3884;48.616;12.872;2023-02-15T05:46:03;-1.70;99.90
7684;DHT22;3884;48.616;12.872;2023-02-15T05:48:31;-1.70;99.90
7684;DHT22;3884;48.616;12.872;2023-02-15T05:50:59;-1.60;99.90
7684;DHT22;3884;48.616;12.872;2023-02-15T05:53:28;-1.70;99.90
7684;DHT22;3884;48.616;12.872;2023-02-15T05:56:00;-1.80;99.90
7684;DHT22;3884;48.616;12.872;2023-02-15T05:58:30;-1.80;99.90
7684;DHT22;3884;48.616;12.872;2023-02-15T06:00:57;-1.70;99.90
7684;DHT22;3884;48.616;12.872;2023-02-15T06:03:26;-1.70;99.90
7684;DHT22;3884;48.616;12.872;2023-02-15T06:05:54;-1.60;99.90
7684;DHT22;3884;48.616;12.872;2023-02-15T06:08:21;-1.60;99.90
7684;DHT22;3884;48.616;12.872;2023-02-15T06:10:48;-1.60;99.90
7684;DHT22;3884;48.616;12.872;2023-02-15T06:13:15;-1.60;99.90
7684;DHT22;3884;48.616;12.872;2023-02-15T06:15:42;-1.60;99.90
7684;DHT22;3884;48.616;12.872;2023-02-15T06:18:09;-1.50;99.90
7684;DHT22;3884;48.616;12.872;2023-02-15T06:20:37;-1.40;99.90
7684;DHT22;3884;48.616;12.872;2023-02-15T06:23:04;-1.30;99.90
7684;DHT22;3884;48.616;12.872;2023-02-15T06:25:31;-1.40;99.90
7684;DHT22;3884;48.616;12.872;2023-02-15T06:27:58;-1.40;99.90
7684;DHT22;3884;48.616;12.872;2023-02-15T06:30:25;-1.40;99.90
7684;DHT22;3884;48.616;12.872;2023-02-15T06:32:52;-1.50;99.90
7684;DHT22;3884;48.616;12.872;2023-02-15T06:35:19;-1.50;99.90
7684;DHT22;3884;48.616;12.872;2023-02-15T06:37:49;-1.70;99.90
7684;DHT22;3884;48.616;12.872;2023-02-15T06:40:16;-1.70;99.90
7684;DHT22;3884;48.616;12.872;2023-02-15T06:42:43;-1.70;99.90
7684;DHT22;3884;48.616;12.872;2023-02-15T06:45:10;-1.60;99.90
7684;DHT22;3884;48.616;12.872;2023-02-15T06:47:38;-1.60;99.90
7684;DHT22;3884;48.616;12.872;2023-02-15T06:50:06;-1.60;99.90
7684;DHT22;3884;48.616;12.872;2023-02-15T06:52:33;-1.60;99.90
7684;DHT22;3884;48.616;12.872;2023-02-15T06:55:01;-1.70;99.90
7684;DHT22;3884;48.616;12.872;2023-02-15T06:57:28;-1.70;99.90
7684;DHT22;3884;48.616;12.872;2023-02-15T06:59:55;-1.70;99.90
7684;DHT22;3884;48.616;12.872;2023-02-15T07:02:24;-1.50;99.90
7684;DHT22;3884;48.616;12.872;2023-02-15T07:04:51;-1.50;99.90
7684;DHT22;3884;48.616;12.872;2023-02-15T07:07:18;-1.40;99.90
7684;DHT22;3884;48.616;12.872;2023-02-15T07:09:45;-1.40;99.90
7684;DHT22;3884;48.616;12.872;2023-02-15T07:12:14;-1.40;99.90
7684;DHT22;3884;48.616;12.872;2023-02-15T07:14:59;-1.50;99.90
7684;DHT22;3884;48.616;12.872;2023-02-15T07:17:26;-1.30;99.90
7684;DHT22;3884;48.616;12.872;2023-02-15T07:19:54;-1.30;99.90
7684;DHT22;3884;48.616;12.872;2023-02-15T07:22:21;-1.30;99.90
7684;DHT22;3884;48.616;12.872;2023-02-15T07:24:48;-1.30;99.90
7684;DHT22;3884;48.616;12.872;2023-02-15T07:27:16;-1.40;99.90
7684;DHT22;3884;48.616;12.872;2023-02-15T07:29:43;-1.40;99.90
7684;DHT22;3884;48.616;12.872;2023-02-15T07:32:10;-1.40;99.90
7684;DHT22;3884;48.616;12.872;2023-02-15T07:34:37;-1.40;99.90
7684;DHT22;3884;48.616;12.872;2023-02-15T07:37:04;-1.40;99.90
7684;DHT22;3884;48.616;12.872;2023-02-15T07:39:31;-1.40;99.90
7684;DHT22;3884;48.616;12.872;2023-02-15T07:41:59;-1.40;99.90
7684;DHT22;3884;48.616;12.872;2023-02-15T07:44:31;-1.40;99.90
7684;DHT22;3884;48.616;12.872;2023-02-15T07:46:58;-1.40;99.90
7684;DHT22;3884;48.616;12.872;2023-02-15T07:49:25;-1.30;99.90
7684;DHT22;3884;48.616;12.872;2023-02-15T07:51:52;-1.40;99.90
7684;DHT22;3884;48.616;12.872;2023-02-15T07:54:19;-1.50;99.90
7684;DHT22;3884;48.616;12.872;2023-02-15T07:56:46;-1.60;99.90
7684;DHT22;3884;48.616;12.872;2023-02-15T07:59:14;-1.60;99.90
7684;DHT22;3884;48.616;12.872;2023-02-15T08:01:42;-1.60;99.90
7684;DHT22;3884;48.616;12.872;2023-02-15T08:04:09;-1.70;99.90
7684;DHT22;3884;48.616;12.872;2023-02-15T08:06:37;-1.70;99.90
7684;DHT22;3884;48.616;12.872;2023-02-15T08:09:05;-1.60;99.90
7684;DHT22;3884;48.616;12.872;2023-02-15T08:11:34;-1.70;99.90
7684;DHT22;3884;48.616;12.872;2023-02-15T08:14:06;-1.50;99.90
7684;DHT22;3884;48.616;12.872;2023-02-15T08:16:35;-1.40;99.90
7684;DHT22;3884;48.616;12.872;2023-02-15T08:19:06;-1.30;99.90
7684;DHT22;3884;48.616;12.872;2023-02-15T08:21:35;-1.30;99.90
7684;DHT22;3884;48.616;12.872;2023-02-15T08:24:03;-1.30;99.90
7684;DHT22;3884;48.616;12.872;2023-02-15T08:26:31;-1.20;99.90
7684;DHT22;3884;48.616;12.872;2023-02-15T08:28:59;-1.10;99.90
7684;DHT22;3884;48.616;12.872;2023-02-15T08:31:27;-1.20;99.90
7684;DHT22;3884;48.616;12.872;2023-02-15T08:33:55;-1.20;99.90
7684;DHT22;3884;48.616;12.872;2023-02-15T08:36:28;-1.20;99.90
7684;DHT22;3884;48.616;12.872;2023-02-15T08:38:57;-1.30;99.90
7684;DHT22;3884;48.616;12.872;2023-02-15T08:41:27;-1.30;99.90
7684;DHT22;3884;48.616;12.872;2023-02-15T08:43:56;-1.30;99.90
7684;DHT22;3884;48.616;12.872;2023-02-15T08:46:26;-1.20;99.90
7684;DHT22;3884;48.616;12.872;2023-02-15T08:48:53;-1.10;99.90
7684;DHT22;3884;48.616;12.872;2023-02-15T08:51:23;-1.00;99.90
7684;DHT22;3884;48.616;12.872;2023-02-15T08:53:53;-1.10;99.90
7684;DHT22;3884;48.616;12.872;2023-02-15T08:56:23;-1.00;99.90
7684;DHT22;3884;48.616;12.872;2023-02-15T08:58:52;-1.00;99.90
7684;DHT22;3884;48.616;12.872;2023-02-15T09:01:21;-0.90;99.90
7684;DHT22;3884;48.616;12.872;2023-02-15T09:03:49;-0.90;99.90
7684;DHT22;3884;48.616;12.872;2023-02-15T09:06:19;-1.00;99.90
7684;DHT22;3884;48.616;12.872;2023-02-15T09:08:47;-1.10;99.90
7684;DHT22;3884;48.616;12.872;2023-02-15T09:11:17;-1.00;99.90
7684;DHT22;3884;48.616;12.872;2023-02-15T09:13:49;-0.90;99.90
7684;DHT22;3884;48.616;12.872;2023-02-15T09:16:16;-1.10;99.90
7684;DHT22;3884;48.616;12.872;2023-02-15T09:18:44;-1.00;99.90
7684;DHT22;3884;48.616;12.872;2023-02-15T09:21:13;-1.00;99.90
7684;DHT22;3884;48.616;12.872;2023-02-15T09:23:41;-1.00;99.90
7684;DHT22;3884;48.616;12.872;2023-02-15T09:26:10;-1.00;99.90
7684;DHT22;3884;48.616;12.872;2023-02-15T09:28:38;-1.00;99.90
7684;DHT22;3884;48.616;12.872;2023-02-15T09:31:11;-1.00;99.90
7684;DHT22;3884;48.616;12.872;2023-02-15T09:33:39;-1.00;99.90
7684;DHT22;3884;48.616;12.872;2023-02-15T09:36:15;-1.00;99.90
7684;DHT22;3884;48.616;12.872;2023-02-15T09:38:42;-1.10;99.90
7684;DHT22;3884;48.616;12.872;2023-02-15T09:41:26;-1.00;99.90
7684;DHT22;3884;48.616;12.872;2023-02-15T09:44:04;-1.00;99.90
7684;DHT22;3884;48.616;12.872;2023-02-15T09:46:47;-0.90;99.90
7684;DHT22;3884;48.616;12.872;2023-02-15T09:49:23;-0.90;99.90
7684;DHT22;3884;48.616;12.872;2023-02-15T09:52:17;-0.90;99.90
7684;DHT22;3884;48.616;12.872;2023-02-15T09:54:57;-0.80;99.90
7684;DHT22;3884;48.616;12.872;2023-02-15T09:57:32;-0.70;99.90
7684;DHT22;3884;48.616;12.872;2023-02-15T10:00:09;-0.80;99.90
7684;DHT22;3884;48.616;12.872;2023-02-15T10:02:54;-0.90;99.90
7684;DHT22;3884;48.616;12.872;2023-02-15T10:05:32;-0.90;99.90
7684;DHT22;3884;48.616;12.872;2023-02-15T10:08:39;-0.90;99.90
7684;DHT22;3884;48.616;12.872;2023-02-15T10:11:14;-1.00;99.90
7684;DHT22;3884;48.616;12.872;2023-02-15T10:14:21;-0.90;99.90
7684;DHT22;3884;48.616;12.872;2023-02-15T10:16:58;-0.80;99.90
7684;DHT22;3884;48.616;12.872;2023-02-15T10:19:36;-0.80;99.90
7684;DHT22;3884;48.616;12.872;2023-02-15T10:22:18;-0.90;99.90
7684;DHT22;3884;48.616;12.872;2023-02-15T10:25:13;-0.90;99.90
7684;DHT22;3884;48.616;12.872;2023-02-15T10:27:46;-1.00;99.90
7684;DHT22;3884;48.616;12.872;2023-02-15T10:30:15;-1.10;99.90
7684;DHT22;3884;48.616;12.872;2023-02-15T10:32:53;-1.00;99.90
7684;DHT22;3884;48.616;12.872;2023-02-15T10:35:29;-0.90;99.90
7684;DHT22;3884;48.616;12.872;2023-02-15T10:38:16;-0.80;99.90
7684;DHT22;3884;48.616;12.872;2023-02-15T10:40:55;-0.60;99.90
7684;DHT22;3884;48.616;12.872;2023-02-15T10:43:46;-0.50;99.90
7684;DHT22;3884;48.616;12.872;2023-02-15T10:46:35;-0.50;99.90
7684;DHT22;3884;48.616;12.872;2023-02-15T10:49:20;-0.50;99.90
7684;DHT22;3884;48.616;12.872;2023-02-15T10:52:00;-0.40;99.90
7684;DHT22;3884;48.616;12.872;2023-02-15T10:54:34;-0.40;99.90
7684;DHT22;3884;48.616;12.872;2023-02-15T10:57:06;-0.30;99.90
7684;DHT22;3884;48.616;12.872;2023-02-15T10:59:50;-0.20;99.90
7684;DHT22;3884;48.616;12.872;2023-02-15T11:02:29;-0.30;99.90
7684;DHT22;3884;48.616;12.872;2023-02-15T11:05:15;-0.30;99.90
7684;DHT22;3884;48.616;12.872;2023-02-15T11:07:47;-0.20;99.90
7684;DHT22;3884;48.616;12.872;2023-02-15T11:10:24;-0.20;99.90
7684;DHT22;3884;48.616;12.872;2023-02-15T11:12:54;-0.30;99.90
7684;DHT22;3884;48.616;12.872;2023-02-15T11:15:26;-0.40;99.90
7684;DHT22;3884;48.616;12.872;2023-02-15T11:18:00;-0.40;99.90
7684;DHT22;3884;48.616;12.872;2023-02-15T11:20:32;-0.30;99.90
7684;DHT22;3884;48.616;12.872;2023-02-15T11:23:01;-0.30;99.90
7684;DHT22;3884;48.616;12.872;2023-02-15T11:25:31;-0.20;99.90
7684;DHT22;3884;48.616;12.872;2023-02-15T11:28:03;-0.40;99.90
7684;DHT22;3884;48.616;12.872;2023-02-15T11:30:38;-0.50;99.90
7684;DHT22;3884;48.616;12.872;2023-02-15T11:33:15;-0.40;99.90
7684;DHT22;3884;48.616;12.872;2023-02-15T11:35:49;-0.40;99.90
7684;DHT22;3884;48.616;12.872;2023-02-15T11:38:20;-0.40;99.90
7684;DHT22;3884;48.616;12.872;2023-02-15T11:40:51;-0.40;99.90
7684;DHT22;3884;48.616;12.872;2023-02-15T11:43:23;-0.50;99.90
7684;DHT22;3884;48.616;12.872;2023-02-15T11:45:52;-0.50;99.90
7684;DHT22;3884;48.616;12.872;2023-02-15T11:48:21;-0.40;99.90
7684;DHT22;3884;48.616;12.872;2023-02-15T11:50:48;-0.30;99.90
7684;DHT22;3884;48.616;12.872;2023-02-15T11:53:17;-0.40;99.90
7684;DHT22;3884;48.616;12.872;2023-02-15T11:55:46;-0.40;99.90
7684;DHT22;3884;48.616;12.872;2023-02-15T11:58:22;-0.30;99.90
7684;DHT22;3884;48.616;12.872;2023-02-15T12:00:53;-0.30;99.90
7684;DHT22;3884;48.616;12.872;2023-02-15T12:03:29;-0.30;99.90
7684;DHT22;3884;48.616;12.872;2023-02-15T12:06:02;-0.40;99.90
7684;DHT22;3884;48.616;12.872;2023-02-15T12:08:37;-0.30;99.90
7684;DHT22;3884;48.616;12.872;2023-02-15T12:11:07;-0.30;99.90
7684;DHT22;3884;48.616;12.872;2023-02-15T12:13:54;-0.20;99.90
7684;DHT22;3884;48.616;12.872;2023-02-15T12:16:21;-0.20;99.90
7684;DHT22;3884;48.616;12.872;2023-02-15T12:18:50;-0.20;99.90
7684;DHT22;3884;48.616;12.872;2023-02-15T12:21:25;-0.20;99.90
7684;DHT22;3884;48.616;12.872;2023-02-15T12:23:55;-0.20;99.90
7684;DHT22;3884;48.616;12.872;2023-02-15T12:26:24;-0.10;99.90
7684;DHT22;3884;48.616;12.872;2023-02-15T12:28:52;-0.20;99.90
7684;DHT22;3884;48.616;12.872;2023-02-15T12:31:27;0.00;99.90
7684;DHT22;3884;48.616;12.872;2023-02-15T12:34:02;-0.10;99.90
7684;DHT22;3884;48.616;12.872;2023-02-15T12:36:40;0.00;99.90
7684;DHT22;3884;48.616;12.872;2023-02-15T12:39:19;0.00;99.90
7684;DHT22;3884;48.616;12.872;2023-02-15T12:41:59;0.00;99.90
7684;DHT22;3884;48.616;12.872;2023-02-15T12:44:28;-0.10;99.90
7684;DHT22;3884;48.616;12.872;2023-02-15T12:47:01;-0.20;99.90
7684;DHT22;3884;48.616;12.872;2023-02-15T12:49:34;-0.20;99.90
7684;DHT22;3884;48.616;12.872;2023-02-15T12:52:04;-0.10;99.90
7684;DHT22;3884;48.616;12.872;2023-02-15T12:54:37;-0.10;99.90
7684;DHT22;3884;48.616;12.872;2023-02-15T12:57:30;-0.10;99.90
7684;DHT22;3884;48.616;12.872;2023-02-15T12:59:59;-0.20;99.90
7684;DHT22;3884;48.616;12.872;2023-02-15T13:02:31;-0.10;99.90
7684;DHT22;3884;48.616;12.872;2023-02-15T13:05:14;0.10;99.90
7684;DHT22;3884;48.616;12.872;2023-02-15T13:07:49;0.10;99.90
7684;DHT22;3884;48.616;12.872;2023-02-15T13:10:25;0.20;99.90
7684;DHT22;3884;48.616;12.872;2023-02-15T13:12:55;0.20;99.90
7684;DHT22;3884;48.616;12.872;2023-02-15T13:15:31;0.30;99.90
7684;DHT22;3884;48.616;12.872;2023-02-15T13:17:59;0.30;99.90
7684;DHT22;3884;48.616;12.872;2023-02-15T13:20:30;0.30;99.90
7684;DHT22;3884;48.616;12.872;2023-02-15T13:23:01;0.30;99.90
7684;DHT22;3884;48.616;12.872;2023-02-15T13:25:34;0.20;99.90
7684;DHT22;3884;48.616;12.872;2023-02-15T13:28:10;0.30;99.90
7684;DHT22;3884;48.616;12.872;2023-02-15T13:30:43;0.30;99.90
7684;DHT22;3884;48.616;12.872;2023-02-15T13:33:16;0.30;99.90
7684;DHT22;3884;48.616;12.872;2023-02-15T13:35:50;0.30;99.90
7684;DHT22;3884;48.616;12.872;2023-02-15T13:38:45;0.30;99.90
7684;DHT22;3884;48.616;12.872;2023-02-15T13:41:16;0.30;99.90
7684;DHT22;3884;48.616;12.872;2023-02-15T13:43:51;0.50;99.90
7684;DHT22;3884;48.616;12.872;2023-02-15T13:46:28;0.60;99.90
7684;DHT22;3884;48.616;12.872;2023-02-15T13:49:09;0.50;99.90
7684;DHT22;3884;48.616;12.872;2023-02-15T13:51:43;0.50;99.90
7684;DHT22;3884;48.616;12.872;2023-02-15T13:54:32;0.50;99.90
7684;DHT22;3884;48.616;12.872;2023-02-15T13:57:14;0.40;99.90
7684;DHT22;3884;48.616;12.872;2023-02-15T14:00:01;0.40;99.90
7684;DHT22;3884;48.616;12.872;2023-02-15T14:08:58;0.50;99.90
7684;DHT22;3884;48.616;12.872;2023-02-15T14:11:36;0.60;99.90
7684;DHT22;3884;48.616;12.872;2023-02-15T14:14:35;0.60;99.90
7684;DHT22;3884;48.616;12.872;2023-02-15T14:17:13;0.70;99.90
7684;DHT22;3884;48.616;12.872;2023-02-15T14:19:46;0.60;99.90
7684;DHT22;3884;48.616;12.872;2023-02-15T14:22:23;0.60;99.90
7684;DHT22;3884;48.616;12.872;2023-02-15T14:25:03;0.50;99.90
7684;DHT22;3884;48.616;12.872;2023-02-15T14:27:45;0.50;99.90
7684;DHT22;3884;48.616;12.872;2023-02-15T14:30:17;0.60;99.90
7684;DHT22;3884;48.616;12.872;2023-02-15T14:32:47;0.70;99.90
7684;DHT22;3884;48.616;12.872;2023-02-15T14:35:17;0.70;99.90
7684;DHT22;3884;48.616;12.872;2023-02-15T14:37:49;0.70;99.90
7684;DHT22;3884;48.616;12.872;2023-02-15T14:40:28;0.80;99.90
7684;DHT22;3884;48.616;12.872;2023-02-15T14:43:21;0.80;99.90
7684;DHT22;3884;48.616;12.872;2023-02-15T14:45:53;0.70;99.90
7684;DHT22;3884;48.616;12.872;2023-02-15T14:48:24;0.70;99.90
7684;DHT22;3884;48.616;12.872;2023-02-15T14:50:52;0.70;99.90
7684;DHT22;3884;48.616;12.872;2023-02-15T14:53:40;0.50;99.90
7684;DHT22;3884;48.616;12.872;2023-02-15T14:56:23;0.40;99.90
7684;DHT22;3884;48.616;12.872;2023-02-15T14:59:16;0.50;99.90
7684;DHT22;3884;48.616;12.872;2023-02-15T15:01:57;0.40;99.90
7684;DHT22;3884;48.616;12.872;2023-02-15T15:04:30;0.50;99.90
7684;DHT22;3884;48.616;12.872;2023-02-15T15:07:03;0.40;99.90
7684;DHT22;3884;48.616;12.872;2023-02-15T15:09:36;0.50;99.90
7684;DHT22;3884;48.616;12.872;2023-02-15T15:12:36;0.50;99.90
7684;DHT22;3884;48.616;12.872;2023-02-15T15:15:05;0.40;99.90
7684;DHT22;3884;48.616;12.872;2023-02-15T15:18:00;0.50;99.90
7684;DHT22;3884;48.616;12.872;2023-02-15T15:20:40;0.50;99.90
7684;DHT22;3884;48.616;12.872;2023-02-15T15:26:29;0.50;99.90
7684;DHT22;3884;48.616;12.872;2023-02-15T15:29:04;0.40;99.90
7684;DHT22;3884;48.616;12.872;2023-02-15T15:31:41;0.40;99.90
7684;DHT22;3884;48.616;12.872;2023-02-15T15:37:35;0.40;99.90
7684;DHT22;3884;48.616;12.872;2023-02-15T15:49:15;0.20;99.90
7684;DHT22;3884;48.616;12.872;2023-02-15T15:51:43;0.20;99.90
7684;DHT22;3884;48.616;12.872;2023-02-15T15:54:15;0.20;99.90
7684;DHT22;3884;48.616;12.872;2023-02-15T15:56:46;0.20;99.90
7684;DHT22;3884;48.616;12.872;2023-02-15T15:59:18;0.20;99.90
7684;DHT22;3884;48.616;12.872;2023-02-15T16:01:47;0.20;99.90
7684;DHT22;3884;48.616;12.872;2023-02-15T16:04:24;0.10;99.90
7684;DHT22;3884;48.616;12.872;2023-02-15T16:06:52;0.00;99.90
7684;DHT22;3884;48.616;12.872;2023-02-15T16:09:22;0.00;99.90
7684;DHT22;3884;48.616;12.872;2023-02-15T16:11:52;0.00;99.90
7684;DHT22;3884;48.616;12.872;2023-02-15T16:14:26;0.00;99.90
7684;DHT22;3884;48.616;12.872;2023-02-15T16:16:57;0.00;99.90
7684;DHT22;3884;48.616;12.872;2023-02-15T16:19:28;0.00;99.90
7684;DHT22;3884;48.616;12.872;2023-02-15T16:21:58;-0.10;99.90
7684;DHT22;3884;48.616;12.872;2023-02-15T16:24:38;-0.10;99.90
7684;DHT22;3884;48.616;12.872;2023-02-15T16:29:58;-0.10;99.90
7684;DHT22;3884;48.616;12.872;2023-02-15T16:32:27;-0.10;99.90
7684;DHT22;3884;48.616;12.872;2023-02-15T16:34:56;-0.20;99.90
7684;DHT22;3884;48.616;12.872;2023-02-15T16:37:25;-0.10;99.90
7684;DHT22;3884;48.616;12.872;2023-02-15T16:39:53;-0.20;99.90
7684;DHT22;3884;48.616;12.872;2023-02-15T16:42:21;-0.20;99.90
7684;DHT22;3884;48.616;12.872;2023-02-15T16:44:51;-0.20;99.90
7684;DHT22;3884;48.616;12.872;2023-02-15T16:47:23;-0.30;99.90
7684;DHT22;3884;48.616;12.872;2023-02-15T16:49:55;-0.40;99.90
7684;DHT22;3884;48.616;12.872;2023-02-15T16:52:26;-0.40;99.90